Time;durP1;ratioP1;P1;durP2;ratioP2;P2;SDS_P1;SDS_P2;PMS_P1;PMS_P2;Temp;Humidity;BMP_temperature;BMP_pressure;BME280_temperature;BME280_humidity;BME280_pressure;Samples;Min_cycle;Max_cycle;Signal;HPM_P1;HPM_P2
2021/09/12 00:01:21;;;;;;;27.15;20.67;;;14.70;99.90;;;;;;6121349;23;20077;-74
2021/09/12 00:03:46;;;;;;;28.33;20.88;;;14.60;99.90;;;;;;6119024;23;20010;-76
2021/09/12 00:06:12;;;;;;;24.92;21.15;;;14.60;99.90;;;;;;6122314;23;20329;-73
2021/09/12 00:08:41;;;;;;;22.83;20.27;;;14.50;99.90;;;;;;6118714;23;20072;-74
2021/09/12 00:11:07;;;;;;;25.05;21.60;;;14.60;99.90;;;;;;6123448;23;20006;-74
2021/09/12 00:13:33;;;;;;;24.75;20.60;;;14.60;99.90;;;;;;6118147;23;20068;-74
2021/09/12 00:16:00;;;;;;;23.02;19.45;;;14.60;99.90;;;;;;6123894;23;20002;-74
2021/09/12 00:18:25;;;;;;;24.27;19.60;;;14.60;99.90;;;;;;6124906;23;20078;-74
2021/09/12 00:20:51;;;;;;;22.60;19.70;;;14.60;99.90;;;;;;6124662;23;20030;-74
2021/09/12 00:23:17;;;;;;;28.80;20.08;;;14.60;99.90;;;;;;6124022;23;20025;-74
2021/09/12 00:25:42;;;;;;;25.63;20.70;;;14.50;99.90;;;;;;6124206;23;20001;-73
2021/09/12 00:28:08;;;;;;;25.15;18.83;;;14.50;99.90;;;;;;6096618;23;20437;-74
2021/09/12 00:30:34;;;;;;;21.98;18.65;;;14.50;99.90;;;;;;6124588;23;20061;-73
2021/09/12 00:33:00;;;;;;;23.83;18.13;;;14.50;99.90;;;;;;6124537;23;20452;-74
2021/09/12 00:35:25;;;;;;;23.60;18.70;;;14.50;99.90;;;;;;6125082;23;20052;-74
2021/09/12 00:37:51;;;;;;;25.95;18.50;;;14.40;99.90;;;;;;6123859;23;20005;-74
2021/09/12 00:40:22;;;;;;;22.08;19.52;;;14.40;99.90;;;;;;6124585;23;20002;-74
2021/09/12 00:42:49;;;;;;;28.70;20.15;;;14.40;99.90;;;;;;6124328;23;20037;-74
2021/09/12 00:45:15;;;;;;;19.98;16.80;;;14.30;99.90;;;;;;6123731;23;20005;-74
2021/09/12 00:47:41;;;;;;;22.75;19.05;;;14.30;99.90;;;;;;6124676;23;20002;-73
2021/09/12 00:50:07;;;;;;;24.88;18.98;;;14.30;99.90;;;;;;6123620;23;20021;-73
2021/09/12 00:52:33;;;;;;;23.50;20.02;;;14.30;99.90;;;;;;6124391;23;20454;-73
2021/09/12 00:55:01;;;;;;;27.05;20.35;;;14.20;99.90;;;;;;6124694;23;20005;-74
2021/09/12 00:57:27;;;;;;;24.27;20.23;;;14.20;99.90;;;;;;6124857;23;20016;-73
2021/09/12 00:59:54;;;;;;;26.20;18.88;;;14.10;99.90;;;;;;6125177;23;20009;-73
2021/09/12 01:02:20;;;;;;;21.38;18.88;;;14.20;99.90;;;;;;6098377;23;20437;-74
2021/09/12 01:04:46;;;;;;;22.98;19.48;;;14.10;99.90;;;;;;6124230;23;20009;-73
2021/09/12 01:07:13;;;;;;;20.88;18.40;;;14.10;99.90;;;;;;6124001;23;20038;-75
2021/09/12 01:09:40;;;;;;;28.23;19.30;;;14.00;99.90;;;;;;6124729;23;20100;-73
2021/09/12 01:12:09;;;;;;;23.88;19.70;;;14.00;99.90;;;;;;6124626;23;20002;-74
2021/09/12 01:14:36;;;;;;;25.23;18.92;;;14.00;99.90;;;;;;6124884;23;20006;-73
2021/09/12 01:17:03;;;;;;;25.58;18.60;;;14.00;99.90;;;;;;6124500;23;20066;-74
2021/09/12 01:19:30;;;;;;;20.92;17.75;;;14.00;99.90;;;;;;6124397;23;20028;-75
2021/09/12 01:22:01;;;;;;;23.27;19.00;;;14.00;99.90;;;;;;6124008;23;20002;-73
2021/09/12 01:24:28;;;;;;;24.63;19.17;;;14.00;99.90;;;;;;6124077;23;20349;-74
2021/09/12 01:26:54;;;;;;;23.30;20.60;;;13.90;99.90;;;;;;6124064;23;20434;-75
2021/09/12 01:29:20;;;;;;;20.73;18.23;;;13.90;99.90;;;;;;6124380;23;20016;-75
2021/09/12 01:31:46;;;;;;;26.98;18.95;;;13.90;99.90;;;;;;6124471;23;20005;-74
2021/09/12 01:34:11;;;;;;;22.50;17.38;;;13.80;99.90;;;;;;6124390;23;20073;-75
2021/09/12 01:36:37;;;;;;;24.27;19.42;;;13.80;99.90;;;;;;6124591;23;20085;-75
2021/09/12 01:39:04;;;;;;;23.98;20.63;;;13.80;99.90;;;;;;6126716;23;20445;-75
2021/09/12 01:41:31;;;;;;;22.38;18.65;;;13.80;99.90;;;;;;6126434;23;20094;-74
2021/09/12 01:43:59;;;;;;;19.88;17.77;;;13.70;99.90;;;;;;6126883;23;20002;-74
2021/09/12 01:46:26;;;;;;;21.42;18.92;;;13.80;99.90;;;;;;6126435;23;20002;-75
2021/09/12 01:48:52;;;;;;;21.67;18.25;;;13.80;99.90;;;;;;6126270;23;20061;-74
2021/09/12 01:51:18;;;;;;;24.52;19.58;;;13.80;99.90;;;;;;6126010;23;20041;-75
2021/09/12 01:53:45;;;;;;;26.48;19.30;;;13.80;99.90;;;;;;6126446;23;20437;-74
2021/09/12 01:56:11;;;;;;;24.90;18.73;;;13.80;99.90;;;;;;6125067;23;20013;-75
2021/09/12 01:58:37;;;;;;;24.40;17.05;;;13.80;99.90;;;;;;6126323;23;20002;-75
2021/09/12 02:01:03;;;;;;;23.05;17.13;;;13.80;99.90;;;;;;6126029;23;20013;-75
2021/09/12 02:03:29;;;;;;;21.58;18.20;;;13.70;99.90;;;;;;6126792;23;20013;-74
2021/09/12 02:05:54;;;;;;;22.65;17.90;;;13.70;99.90;;;;;;6125475;23;20006;-75
2021/09/12 02:08:20;;;;;;;21.58;17.25;;;13.70;99.90;;;;;;6126269;23;20032;-75
2021/09/12 02:10:46;;;;;;;22.13;17.70;;;13.60;99.90;;;;;;6126450;23;20078;-74
2021/09/12 02:13:12;;;;;;;20.02;17.20;;;13.60;99.90;;;;;;6126441;23;20017;-74
2021/09/12 02:15:38;;;;;;;21.85;17.45;;;13.60;99.90;;;;;;6126164;23;20006;-75
2021/09/12 02:18:04;;;;;;;20.77;17.20;;;13.60;99.90;;;;;;6126120;23;20100;-75
2021/09/12 02:20:29;;;;;;;22.15;17.38;;;13.60;99.90;;;;;;6125646;23;20005;-74
2021/09/12 02:22:55;;;;;;;21.63;18.17;;;13.50;99.90;;;;;;6125160;23;20497;-75
2021/09/12 02:25:21;;;;;;;19.92;17.67;;;13.50;99.90;;;;;;6126022;23;19998;-74
2021/09/12 02:27:47;;;;;;;23.00;18.80;;;13.50;99.90;;;;;;6126228;23;20009;-75
2021/09/12 02:30:13;;;;;;;23.65;20.42;;;13.50;99.90;;;;;;6125391;23;20053;-75
2021/09/12 02:32:39;;;;;;;20.92;18.70;;;13.40;99.90;;;;;;6126042;23;20001;-74
2021/09/12 02:35:06;;;;;;;21.70;17.85;;;13.40;99.90;;;;;;6126105;23;20006;-75
2021/09/12 02:37:31;;;;;;;21.13;18.00;;;13.40;99.90;;;;;;6125315;23;20009;-75
2021/09/12 02:39:57;;;;;;;24.17;17.50;;;13.40;99.90;;;;;;6125576;23;20010;-74
2021/09/12 02:42:23;;;;;;;23.42;17.83;;;13.40;99.90;;;;;;6099384;23;20005;-75
2021/09/12 02:44:49;;;;;;;21.38;17.85;;;13.40;99.90;;;;;;6126055;23;20069;-74
2021/09/12 02:47:14;;;;;;;24.63;18.80;;;13.40;99.90;;;;;;6125472;23;20058;-74
2021/09/12 02:49:40;;;;;;;22.38;17.92;;;13.40;99.90;;;;;;6125674;23;20016;-74
2021/09/12 02:52:06;;;;;;;21.45;17.83;;;13.40;99.90;;;;;;6125433;23;20012;-73
2021/09/12 02:54:32;;;;;;;24.08;18.27;;;13.30;99.90;;;;;;6099579;23;20005;-75
2021/09/12 02:56:57;;;;;;;24.60;18.67;;;13.30;99.90;;;;;;6125795;23;20006;-73
2021/09/12 02:59:23;;;;;;;23.08;18.42;;;13.20;99.90;;;;;;6126137;23;20006;-74
2021/09/12 03:01:49;;;;;;;20.80;17.25;;;13.20;99.90;;;;;;6125701;23;20388;-73
2021/09/12 03:04:14;;;;;;;26.00;18.63;;;13.20;99.90;;;;;;6099771;23;20448;-73
2021/09/12 03:06:40;;;;;;;22.23;17.83;;;13.20;99.90;;;;;;6125509;23;20002;-73
2021/09/12 03:09:06;;;;;;;23.40;19.80;;;13.20;99.90;;;;;;6125730;23;20045;-74
2021/09/12 03:11:31;;;;;;;20.00;17.13;;;13.20;99.90;;;;;;6126330;23;20029;-74
2021/09/12 03:13:57;;;;;;;26.42;19.10;;;13.20;99.90;;;;;;6125464;23;20002;-73
2021/09/12 03:16:24;;;;;;;23.30;18.27;;;13.20;99.90;;;;;;6125861;23;20084;-73
2021/09/12 03:18:50;;;;;;;24.15;19.50;;;13.10;99.90;;;;;;6125637;23;20006;-73
2021/09/12 03:21:17;;;;;;;22.00;18.23;;;13.10;99.90;;;;;;6125399;23;20393;-73
2021/09/12 03:23:42;;;;;;;21.77;17.92;;;13.10;99.90;;;;;;6125121;23;20014;-77
2021/09/12 03:26:08;;;;;;;26.00;18.15;;;13.00;99.90;;;;;;6125154;23;20010;-74
2021/09/12 03:28:34;;;;;;;23.17;17.38;;;13.00;99.90;;;;;;6125463;23;20057;-73
2021/09/12 03:31:00;;;;;;;24.60;17.92;;;13.00;99.90;;;;;;6125384;23;20010;-73
2021/09/12 03:33:25;;;;;;;23.85;18.55;;;13.00;99.90;;;;;;6125170;23;20006;-73
2021/09/12 03:35:51;;;;;;;22.30;18.30;;;12.90;99.90;;;;;;6125201;23;20345;-75
2021/09/12 03:38:17;;;;;;;24.67;17.67;;;12.90;99.90;;;;;;6125420;23;20029;-74
2021/09/12 03:40:42;;;;;;;21.55;18.02;;;12.90;99.90;;;;;;6124945;23;20010;-73
2021/09/12 03:43:08;;;;;;;25.15;17.70;;;13.00;99.90;;;;;;6124276;23;20010;-74
2021/09/12 03:45:34;;;;;;;20.38;18.15;;;13.00;99.90;;;;;;6125428;23;20463;-74
2021/09/12 03:48:01;;;;;;;20.77;17.83;;;13.00;99.90;;;;;;6125006;23;20006;-73
2021/09/12 03:50:27;;;;;;;21.20;17.27;;;13.00;99.90;;;;;;6125152;23;20038;-74
2021/09/12 03:52:53;;;;;;;21.52;17.73;;;12.90;99.90;;;;;;6125323;23;20002;-74
2021/09/12 03:55:19;;;;;;;19.52;17.52;;;12.90;99.90;;;;;;6124619;23;20002;-75
2021/09/12 03:57:48;;;;;;;22.38;17.23;;;12.90;99.90;;;;;;6124878;23;20002;-74
2021/09/12 04:00:17;;;;;;;16.35;14.20;;;12.80;99.90;;;;;;6124924;23;20036;-74
2021/09/12 04:02:44;;;;;;;17.02;15.23;;;12.80;99.90;;;;;;6125788;23;20010;-73
2021/09/12 04:05:10;;;;;;;23.27;16.85;;;12.70;99.90;;;;;;6098993;23;20041;-74
2021/09/12 04:07:36;;;;;;;22.48;17.95;;;12.80;99.90;;;;;;6125245;23;20398;-75
2021/09/12 04:10:04;;;;;;;21.05;17.98;;;12.80;99.90;;;;;;6124575;23;20097;-74
2021/09/12 04:12:30;;;;;;;20.85;18.38;;;12.80;99.90;;;;;;6125050;23;20006;-74
2021/09/12 04:14:56;;;;;;;19.75;16.92;;;12.70;99.90;;;;;;6099186;23;20106;-74
2021/09/12 04:17:21;;;;;;;19.83;16.58;;;12.70;99.90;;;;;;6125147;23;20461;-74
2021/09/12 04:19:47;;;;;;;20.13;16.95;;;12.70;99.90;;;;;;6125048;23;20002;-75
2021/09/12 04:22:13;;;;;;;24.10;17.30;;;12.70;99.90;;;;;;6124854;23;20013;-75
2021/09/12 04:24:39;;;;;;;19.60;17.15;;;12.70;99.90;;;;;;6124559;23;20032;-74
2021/09/12 04:27:04;;;;;;;19.50;16.38;;;12.70;99.90;;;;;;6124842;23;20006;-74
2021/09/12 04:29:30;;;;;;;18.70;16.70;;;12.70;99.90;;;;;;6125459;23;20013;-74
2021/09/12 04:31:56;;;;;;;20.65;16.70;;;12.70;99.90;;;;;;6124659;23;20009;-75
2021/09/12 04:34:22;;;;;;;19.88;17.20;;;12.70;99.90;;;;;;6124632;23;20053;-74
2021/09/12 04:36:48;;;;;;;16.25;14.50;;;12.70;99.90;;;;;;6124680;23;20010;-75
2021/09/12 04:39:13;;;;;;;18.27;16.27;;;12.70;99.90;;;;;;6124288;23;20005;-74
2021/09/12 04:41:39;;;;;;;22.13;16.63;;;12.70;99.90;;;;;;6124961;23;20002;-74
2021/09/12 04:44:05;;;;;;;23.90;17.80;;;12.80;99.90;;;;;;6124690;23;20013;-74
2021/09/12 04:46:30;;;;;;;19.95;17.25;;;12.80;99.90;;;;;;6124793;23;20488;-74
2021/09/12 04:48:56;;;;;;;22.15;16.13;;;12.80;99.90;;;;;;6124541;23;20010;-73
2021/09/12 04:51:23;;;;;;;18.85;16.00;;;12.80;99.90;;;;;;6124989;23;20407;-74
2021/09/12 04:53:49;;;;;;;21.00;17.48;;;12.90;99.90;;;;;;6124941;23;20030;-73
2021/09/12 04:56:15;;;;;;;22.33;17.55;;;13.00;99.90;;;;;;6124905;23;20001;-74
2021/09/12 04:58:40;;;;;;;19.80;16.92;;;13.00;99.90;;;;;;6123950;23;20030;-74
2021/09/12 05:01:06;;;;;;;22.60;17.08;;;13.00;99.90;;;;;;6122978;23;20057;-73
2021/09/12 05:03:32;;;;;;;20.23;17.98;;;13.10;99.90;;;;;;6125069;23;20010;-73
2021/09/12 05:05:58;;;;;;;21.85;18.05;;;13.20;99.90;;;;;;6124075;23;20074;-74
2021/09/12 05:08:23;;;;;;;19.48;16.42;;;13.20;99.90;;;;;;6125068;23;20010;-73
2021/09/12 05:10:49;;;;;;;21.45;18.02;;;13.20;99.90;;;;;;6124320;23;20049;-73
2021/09/12 05:13:15;;;;;;;24.95;18.45;;;13.30;99.90;;;;;;6123729;23;20136;-73
2021/09/12 05:15:43;;;;;;;20.23;17.98;;;13.40;99.90;;;;;;6123807;23;20002;-74
2021/09/12 05:18:10;;;;;;;21.77;18.52;;;13.50;99.90;;;;;;6124112;23;20002;-73
2021/09/12 05:20:37;;;;;;;25.50;18.65;;;13.60;99.90;;;;;;6124787;23;20060;-73
2021/09/12 05:23:03;;;;;;;19.67;17.40;;;13.70;99.90;;;;;;6124337;23;20013;-73
2021/09/12 05:25:29;;;;;;;24.02;17.17;;;13.80;99.90;;;;;;6124589;23;20077;-74
2021/09/12 05:27:54;;;;;;;19.35;17.10;;;13.90;99.90;;;;;;6124556;23;20438;-74
2021/09/12 05:30:20;;;;;;;22.75;18.73;;;14.10;99.90;;;;;;6124240;23;20425;-73
2021/09/12 05:32:46;;;;;;;24.67;18.95;;;14.20;99.90;;;;;;6124877;23;20006;-73
2021/09/12 05:35:13;;;;;;;21.02;18.80;;;14.30;99.90;;;;;;6124484;23;20053;-74
2021/09/12 05:37:40;;;;;;;23.52;20.83;;;14.50;99.90;;;;;;6098070;23;20002;-74
2021/09/12 05:40:06;;;;;;;26.73;19.50;;;14.60;99.90;;;;;;6124513;23;20469;-74
2021/09/12 05:42:32;;;;;;;24.58;21.20;;;14.70;99.90;;;;;;6097409;23;20017;-73
2021/09/12 05:44:58;;;;;;;24.33;19.63;;;14.80;99.90;;;;;;6124052;23;20353;-74
2021/09/12 05:47:23;;;;;;;23.95;19.95;;;15.00;99.90;;;;;;6124611;23;20079;-73
2021/09/12 05:49:49;;;;;;;25.23;21.25;;;15.10;99.90;;;;;;6098226;23;20049;-75
2021/09/12 05:52:15;;;;;;;22.95;20.25;;;15.20;99.90;;;;;;6124435;23;20006;-74
2021/09/12 05:54:40;;;;;;;23.05;20.65;;;15.30;99.90;;;;;;6124222;23;20044;-74
2021/09/12 05:57:06;;;;;;;26.75;21.65;;;15.50;99.90;;;;;;6124803;23;20009;-75
2021/09/12 05:59:32;;;;;;;25.10;21.02;;;15.60;99.90;;;;;;6125059;23;20418;-74
2021/09/12 06:01:57;;;;;;;27.85;24.05;;;15.70;99.90;;;;;;6124390;23;20049;-74
2021/09/12 06:04:23;;;;;;;29.08;25.77;;;15.90;99.90;;;;;;6124100;23;20022;-74
2021/09/12 06:06:49;;;;;;;29.73;26.67;;;16.00;99.90;;;;;;6124273;23;20081;-75
2021/09/12 06:09:15;;;;;;;29.15;26.13;;;16.10;99.90;;;;;;6124877;23;20374;-74
2021/09/12 06:11:41;;;;;;;32.30;29.00;;;16.20;99.90;;;;;;6125177;23;20033;-74
2021/09/12 06:14:07;;;;;;;30.17;27.27;;;16.40;99.90;;;;;;6124610;23;20077;-74
2021/09/12 06:16:33;;;;;;;30.13;27.30;;;16.50;99.90;;;;;;6123787;23;20037;-73
2021/09/12 06:18:58;;;;;;;34.25;30.55;;;16.60;99.90;;;;;;6124066;23;20010;-74
2021/09/12 06:21:24;;;;;;;27.88;24.95;;;16.70;99.90;;;;;;6123440;23;20017;-74
2021/09/12 06:23:50;;;;;;;32.08;27.77;;;16.80;99.90;;;;;;6125041;23;20018;-73
2021/09/12 06:26:15;;;;;;;28.50;25.10;;;16.90;99.90;;;;;;6126217;23;20443;-73
2021/09/12 06:28:41;;;;;;;30.17;27.08;;;17.00;99.90;;;;;;6126001;23;20055;-74
2021/09/12 06:31:07;;;;;;;32.10;28.75;;;17.20;99.90;;;;;;6125834;23;20337;-74
2021/09/12 06:33:33;;;;;;;27.27;24.50;;;17.30;99.90;;;;;;6126316;23;20006;-74
2021/09/12 06:35:58;;;;;;;27.67;24.80;;;17.40;99.90;;;;;;6099284;23;20037;-74
2021/09/12 06:38:24;;;;;;;28.92;25.05;;;17.60;99.90;;;;;;6125793;23;20073;-73
2021/09/12 06:40:50;;;;;;;28.55;25.73;;;17.60;99.90;;;;;;6126280;23;20080;-73
2021/09/12 06:43:16;;;;;;;29.40;26.35;;;17.80;99.90;;;;;;6100166;23;20006;-74
2021/09/12 06:45:41;;;;;;;27.20;24.27;;;17.90;99.90;;;;;;6125660;23;20041;-74
2021/09/12 06:48:07;;;;;;;28.00;25.20;;;18.00;99.90;;;;;;6126263;23;20006;-75
2021/09/12 06:50:33;;;;;;;26.63;23.83;;;18.10;99.90;;;;;;6125272;23;20016;-75
2021/09/12 06:52:58;;;;;;;26.52;23.80;;;18.20;99.90;;;;;;6125767;23;20346;-74
2021/09/12 06:55:24;;;;;;;25.90;23.35;;;18.30;99.90;;;;;;6125122;23;20026;-75
2021/09/12 06:57:50;;;;;;;27.38;24.50;;;18.30;99.90;;;;;;6125607;23;20006;-73
2021/09/12 07:00:16;;;;;;;24.90;22.30;;;18.40;99.90;;;;;;6124983;23;20002;-74
2021/09/12 07:02:41;;;;;;;25.92;23.30;;;18.50;99.90;;;;;;6125803;23;20345;-74
2021/09/12 07:05:09;;;;;;;25.10;22.55;;;18.60;99.90;;;;;;6124433;23;20005;-75
2021/09/12 07:07:34;;;;;;;23.67;21.45;;;18.70;99.90;;;;;;6098671;23;20012;-75
2021/09/12 07:10:00;;;;;;;28.90;25.02;;;18.90;99.90;;;;;;6125444;23;20041;-74
2021/09/12 07:12:26;;;;;;;26.30;23.70;;;18.90;99.90;;;;;;6099285;23;20470;-74
2021/09/12 07:14:52;;;;;;;26.60;23.92;;;18.90;99.90;;;;;;6125089;23;20081;-74
2021/09/12 07:17:17;;;;;;;26.00;23.15;;;19.10;99.90;;;;;;6125435;23;20009;-74
2021/09/12 07:19:43;;;;;;;26.02;23.63;;;19.10;99.90;;;;;;6124921;23;20133;-74
2021/09/12 07:22:09;;;;;;;26.13;23.42;;;19.30;99.90;;;;;;6124933;23;20009;-75
2021/09/12 07:24:35;;;;;;;27.95;25.15;;;19.30;99.90;;;;;;6124987;23;20006;-75
2021/09/12 07:27:01;;;;;;;26.38;23.23;;;19.40;99.90;;;;;;6125026;23;20013;-75
2021/09/12 07:29:32;;;;;;;26.17;23.60;;;19.50;99.90;;;;;;6097692;23;20368;-75
2021/09/12 07:31:59;;;;;;;26.55;23.85;;;19.60;99.90;;;;;;6124662;23;20033;-76
2021/09/12 07:34:25;;;;;;;27.73;24.90;;;19.70;99.90;;;;;;6097869;23;20333;-74
2021/09/12 07:36:51;;;;;;;26.88;24.17;;;19.70;99.90;;;;;;6124779;23;20006;-74
2021/09/12 07:39:16;;;;;;;26.80;24.20;;;19.80;99.90;;;;;;6124371;23;20421;-75
2021/09/12 07:41:42;;;;;;;27.13;23.35;;;19.90;99.90;;;;;;6125171;23;20013;-73
2021/09/12 07:44:08;;;;;;;25.38;22.45;;;20.00;99.90;;;;;;6124956;23;20085;-73
2021/09/12 07:46:34;;;;;;;26.60;24.10;;;20.10;99.90;;;;;;6099091;23;20340;-74
2021/09/12 07:48:59;;;;;;;25.60;23.08;;;20.20;99.90;;;;;;6123724;23;20064;-75
2021/09/12 07:51:28;;;;;;;27.13;24.05;;;20.20;99.90;;;;;;6098150;23;20006;-75
2021/09/12 07:53:54;;;;;;;23.88;21.33;;;20.30;99.90;;;;;;6124996;23;20460;-76
2021/09/12 07:56:27;;;;;;;26.55;23.83;;;20.40;99.90;;;;;;6098444;23;20006;-75
2021/09/12 07:58:58;;;;;;;24.20;21.45;;;20.50;99.90;;;;;;6124661;23;20430;-74
2021/09/12 08:01:24;;;;;;;24.35;21.85;;;20.60;99.90;;;;;;6125111;23;20009;-74
2021/09/12 08:03:50;;;;;;;22.65;20.50;;;20.70;99.90;;;;;;6098572;23;20520;-74
2021/09/12 08:06:16;;;;;;;24.60;22.33;;;20.90;99.90;;;;;;6098963;23;20009;-74
2021/09/12 08:08:42;;;;;;;22.67;20.45;;;20.90;99.90;;;;;;6098674;23;20102;-75
2021/09/12 08:11:08;;;;;;;25.80;22.42;;;21.00;99.90;;;;;;6125063;23;20002;-75
2021/09/12 08:13:34;;;;;;;21.42;19.33;;;21.10;99.90;;;;;;6098394;23;20010;-79
2021/09/12 08:16:02;;;;;;;21.77;19.13;;;21.10;99.90;;;;;;6098627;23;20464;-75
2021/09/12 08:18:28;;;;;;;19.83;17.80;;;21.30;99.90;;;;;;6098555;23;20033;-74
2021/09/12 08:20:54;;;;;;;21.42;19.23;;;21.30;99.90;;;;;;6125013;23;20005;-74
2021/09/12 08:23:20;;;;;;;23.60;21.10;;;21.40;99.90;;;;;;6094168;23;20465;-74
2021/09/12 08:25:49;;;;;;;21.38;19.35;;;21.50;99.90;;;;;;6092961;23;20097;-75
2021/09/12 08:28:15;;;;;;;20.50;18.52;;;21.50;99.90;;;;;;6093932;23;20006;-75
2021/09/12 08:30:41;;;;;;;19.27;17.27;;;21.60;99.90;;;;;;6093364;23;20014;-76
2021/09/12 08:33:15;;;;;;;19.85;17.92;;;21.70;99.90;;;;;;6093401;23;20108;-74
2021/09/12 08:35:42;;;;;;;19.15;16.95;;;21.70;99.90;;;;;;6095603;23;20387;-74
2021/09/12 08:38:08;;;;;;;18.35;16.65;;;21.90;99.90;;;;;;6095035;23;20002;-74
2021/09/12 08:40:35;;;;;;;20.58;18.48;;;22.10;99.90;;;;;;6093816;23;20009;-74
2021/09/12 08:43:01;;;;;;;22.38;20.00;;;22.10;99.90;;;;;;6091514;23;20009;-74
2021/09/12 08:45:27;;;;;;;18.90;17.02;;;22.10;99.90;;;;;;6093557;23;20002;-73
2021/09/12 08:47:53;;;;;;;18.95;16.17;;;22.20;99.90;;;;;;6094795;23;20442;-75
2021/09/12 08:50:20;;;;;;;20.05;17.48;;;22.30;99.90;;;;;;6094634;23;20010;-74
2021/09/12 08:52:45;;;;;;;19.35;17.23;;;22.30;99.90;;;;;;6093985;23;20434;-75
2021/09/12 08:55:12;;;;;;;17.65;15.98;;;22.50;99.90;;;;;;6094420;23;20009;-75
2021/09/12 08:57:53;;;;;;;21.85;19.85;;;22.60;99.90;;;;;;6094195;23;20029;-74
2021/09/12 09:00:22;;;;;;;19.70;17.75;;;22.50;99.90;;;;;;6094133;23;20006;-75
2021/09/12 09:02:58;;;;;;;17.05;15.32;;;22.50;99.90;;;;;;6094349;23;20010;-75
2021/09/12 09:05:30;;;;;;;16.27;14.68;;;22.70;99.90;;;;;;6095202;23;20006;-75
2021/09/12 09:08:06;;;;;;;18.88;14.60;;;22.80;99.90;;;;;;6095053;23;20010;-75
2021/09/12 09:10:49;;;;;;;17.30;14.00;;;22.90;99.90;;;;;;6094040;23;20010;-75
2021/09/12 09:13:26;;;;;;;20.95;13.60;;;22.90;99.90;;;;;;6094764;23;20037;-75
2021/09/12 09:15:52;;;;;;;15.77;13.75;;;22.80;99.90;;;;;;6093283;23;20049;-75
2021/09/12 09:18:38;;;;;;;14.30;12.07;;;22.90;99.90;;;;;;6094423;23;20505;-74
2021/09/12 09:21:32;;;;;;;14.50;12.57;;;23.10;99.90;;;;;;6095138;23;20026;-75
2021/09/12 09:24:10;;;;;;;13.55;12.18;;;23.40;99.90;;;;;;6114527;23;20048;-74
2021/09/12 09:26:41;;;;;;;12.27;10.98;;;23.60;99.90;;;;;;6123466;23;20030;-74
2021/09/12 09:29:08;;;;;;;11.07;9.90;;;23.80;99.90;;;;;;6123528;23;20018;-74
2021/09/12 09:31:33;;;;;;;11.00;9.90;;;23.90;99.90;;;;;;6123920;23;20089;-74
2021/09/12 09:34:17;;;;;;;10.68;8.80;;;24.10;99.90;;;;;;6098104;23;20424;-74
2021/09/12 09:36:42;;;;;;;10.55;9.65;;;24.20;99.90;;;;;;6124222;23;20013;-75
2021/09/12 09:39:08;;;;;;;10.75;9.75;;;24.20;99.90;;;;;;6123868;23;20345;-75
2021/09/12 09:41:38;;;;;;;11.02;9.60;;;24.10;99.90;;;;;;6124443;23;20006;-75
2021/09/12 09:44:13;;;;;;;9.88;8.93;;;24.40;99.90;;;;;;6123319;23;20094;-74
2021/09/12 09:46:43;;;;;;;9.52;8.63;;;24.80;99.90;;;;;;6123760;23;20469;-75
2021/09/12 09:49:19;;;;;;;11.10;9.95;;;24.90;99.90;;;;;;6122769;23;20017;-75
2021/09/12 09:51:59;;;;;;;13.35;10.60;;;25.10;99.90;;;;;;6121011;23;20009;-74
2021/09/12 09:54:27;;;;;;;11.80;10.63;;;25.00;99.90;;;;;;6123217;23;20005;-75
2021/09/12 09:56:53;;;;;;;10.90;9.80;;;24.80;99.90;;;;;;6122293;23;20053;-75
2021/09/12 09:59:21;;;;;;;10.35;9.45;;;24.80;99.90;;;;;;6124393;23;20003;-75
2021/09/12 10:01:52;;;;;;;9.90;8.90;;;24.90;99.90;;;;;;6125556;23;20077;-75
2021/09/12 10:04:19;;;;;;;12.18;11.07;;;24.90;99.90;;;;;;6125269;23;20417;-75
2021/09/12 10:06:46;;;;;;;12.82;11.68;;;24.90;99.90;;;;;;6125530;23;20013;-75
2021/09/12 10:09:14;;;;;;;11.27;10.25;;;24.80;99.90;;;;;;6124412;23;20021;-75
2021/09/12 10:11:42;;;;;;;11.27;10.10;;;24.80;99.90;;;;;;6124376;23;20337;-74
2021/09/12 10:14:09;;;;;;;10.65;9.52;;;24.80;99.90;;;;;;6124387;23;20064;-74
2021/09/12 10:16:36;;;;;;;9.85;8.82;;;24.70;99.90;;;;;;6097113;23;20006;-75
2021/09/12 10:19:01;;;;;;;14.15;8.38;;;24.60;99.90;;;;;;6123650;23;20002;-75
2021/09/12 10:21:29;;;;;;;9.70;8.77;;;24.70;99.90;;;;;;6123868;23;20002;-75
2021/09/12 10:24:00;;;;;;;9.82;7.22;;;24.70;99.90;;;;;;6124786;23;20109;-75
2021/09/12 10:26:40;;;;;;;8.93;7.65;;;24.70;99.90;;;;;;6123623;23;20061;-74
2021/09/12 10:29:46;;;;;;;9.60;8.70;;;24.60;99.90;;;;;;6124445;23;20399;-74
2021/09/12 10:32:32;;;;;;;9.43;8.30;;;24.40;99.90;;;;;;6124561;23;20077;-74
2021/09/12 10:35:21;;;;;;;11.30;8.93;;;24.20;99.90;;;;;;6122970;23;20061;-74
2021/09/12 10:37:58;;;;;;;10.33;9.27;;;24.10;99.90;;;;;;6109341;23;20014;-74
2021/09/12 10:40:45;;;;;;;8.93;8.02;;;24.00;99.90;;;;;;6123539;23;20590;-74
2021/09/12 10:43:36;;;;;;;8.68;7.22;;;24.10;99.90;;;;;;6124943;23;20006;-74
2021/09/12 10:46:05;;;;;;;9.15;8.35;;;24.10;99.90;;;;;;6126629;23;20005;-74
2021/09/12 10:48:35;;;;;;;10.45;9.45;;;24.20;99.90;;;;;;6124666;23;20089;-74
2021/09/12 10:51:21;;;;;;;8.88;8.00;;;24.40;99.90;;;;;;6125045;23;20464;-74
2021/09/12 10:53:50;;;;;;;8.95;8.15;;;24.50;99.90;;;;;;6105665;23;20014;-74
2021/09/12 10:56:19;;;;;;;8.57;7.50;;;24.50;99.90;;;;;;6098575;23;20009;-74
2021/09/12 10:58:48;;;;;;;9.25;8.45;;;24.50;99.90;;;;;;6125853;23;20002;-74
2021/09/12 11:01:40;;;;;;;10.05;9.05;;;24.50;99.90;;;;;;6125869;23;20009;-74
2021/09/12 11:04:06;;;;;;;8.25;7.45;;;24.40;99.90;;;;;;6124573;23;20049;-74
2021/09/12 11:06:35;;;;;;;8.98;7.32;;;24.40;99.90;;;;;;6124406;23;20033;-74
2021/09/12 11:09:02;;;;;;;7.95;7.15;;;24.40;99.90;;;;;;6125617;23;20097;-74
2021/09/12 11:11:28;;;;;;;8.85;7.18;;;24.40;99.90;;;;;;6125682;23;20006;-74
2021/09/12 11:13:57;;;;;;;7.75;6.97;;;24.60;99.90;;;;;;6126078;23;20002;-74
2021/09/12 11:16:24;;;;;;;8.30;7.53;;;24.80;99.90;;;;;;6124565;23;20002;-75
2021/09/12 11:18:53;;;;;;;7.55;6.95;;;24.90;99.90;;;;;;6125311;23;20010;-74
2021/09/12 11:21:27;;;;;;;8.05;7.13;;;25.00;99.90;;;;;;6124954;23;20010;-74
2021/09/12 11:23:57;;;;;;;7.93;7.20;;;25.10;99.90;;;;;;6125564;23;20029;-74
2021/09/12 11:26:22;;;;;;;8.13;7.32;;;25.20;99.90;;;;;;6126105;23;20061;-74
2021/09/12 11:29:04;;;;;;;9.25;7.32;;;25.30;99.90;;;;;;6125259;23;20005;-75
2021/09/12 11:31:31;;;;;;;9.18;8.25;;;25.30;99.90;;;;;;6124160;23;20011;-75
2021/09/12 11:33:57;;;;;;;8.15;7.45;;;25.40;99.90;;;;;;6125355;23;20030;-73
2021/09/12 11:36:23;;;;;;;7.97;6.75;;;25.50;99.90;;;;;;6124605;23;20005;-74
2021/09/12 11:38:59;;;;;;;9.23;7.05;;;25.60;99.90;;;;;;6123298;23;20629;-74
2021/09/12 11:41:27;;;;;;;8.43;7.53;;;25.70;99.90;;;;;;6123730;23;20009;-75
2021/09/12 11:43:57;;;;;;;7.25;6.47;;;25.60;99.90;;;;;;6124453;23;20526;-75
2021/09/12 11:46:24;;;;;;;8.00;7.13;;;25.50;99.90;;;;;;6122948;23;20014;-74
2021/09/12 11:48:53;;;;;;;14.85;6.97;;;25.60;99.90;;;;;;6124122;23;20041;-75
2021/09/12 11:51:27;;;;;;;6.53;5.93;;;25.60;99.90;;;;;;6124010;23;20001;-75
2021/09/12 11:54:12;;;;;;;9.48;5.60;;;25.60;99.90;;;;;;6123673;23;20052;-75
2021/09/12 11:56:40;;;;;;;6.13;5.63;;;25.50;99.90;;;;;;6124304;23;20002;-74
2021/09/12 11:59:08;;;;;;;8.57;6.38;;;25.50;99.90;;;;;;6124269;23;20010;-74
2021/09/12 12:01:35;;;;;;;13.52;6.05;;;25.60;99.90;;;;;;6124643;23;20064;-74
2021/09/12 12:04:05;;;;;;;7.75;6.13;;;25.70;99.90;;;;;;6096665;23;20001;-74
2021/09/12 12:06:32;;;;;;;10.20;6.25;;;25.60;99.90;;;;;;6123092;23;20013;-75
2021/09/12 12:09:19;;;;;;;8.80;6.50;;;25.10;99.90;;;;;;6123252;23;20453;-75
2021/09/12 12:11:48;;;;;;;10.75;6.75;;;24.90;99.90;;;;;;6098130;23;20338;-75
2021/09/12 12:14:23;;;;;;;7.03;6.32;;;24.60;99.90;;;;;;6123918;23;19998;-75
2021/09/12 12:16:49;;;;;;;5.40;4.75;;;24.30;99.90;;;;;;6121897;23;20010;-75
2021/09/12 12:19:16;;;;;;;11.23;5.85;;;23.90;99.90;;;;;;6122168;23;20307;-74
2021/09/12 12:21:48;;;;;;;8.20;4.85;;;23.80;99.90;;;;;;6122206;23;20009;-75
2021/09/12 12:24:23;;;;;;;9.70;4.50;;;23.60;99.90;;;;;;6122828;23;20045;-74
2021/09/12 12:26:54;;;;;;;9.88;5.82;;;23.50;99.90;;;;;;6123300;23;20060;-74
2021/09/12 12:29:33;;;;;;;10.43;6.38;;;23.50;99.90;;;;;;6123760;23;20017;-74
2021/09/12 12:32:07;;;;;;;11.25;5.35;;;23.60;99.90;;;;;;6123404;23;20716;-75
2021/09/12 12:34:48;;;;;;;8.15;5.82;;;23.70;99.90;;;;;;6122647;23;20836;-74